sensor_id;sensor_type;location;lat;lon;timestamp;pressure;altitude;pressure_sealevel;temperature;humidity
7962;BME280;4026;43.652;24.906;2023-05-18T00:00:27;98737.03;;;13.24;100.00
7962;BME280;4026;43.652;24.906;2023-05-18T00:02:54;98737.31;;;13.21;100.00
7962;BME280;4026;43.652;24.906;2023-05-18T00:05:23;98736.63;;;13.29;100.00
7962;BME280;4026;43.652;24.906;2023-05-18T00:07:51;98734.19;;;13.37;100.00
7962;BME280;4026;43.652;24.906;2023-05-18T00:10:18;98737.72;;;13.46;100.00
7962;BME280;4026;43.652;24.906;2023-05-18T00:12:45;98737.72;;;13.46;100.00
7962;BME280;4026;43.652;24.906;2023-05-18T00:15:12;98737.31;;;13.41;100.00
7962;BME280;4026;43.652;24.906;2023-05-18T00:17:39;98734.47;;;13.44;100.00
7962;BME280;4026;43.652;24.906;2023-05-18T00:20:07;98729.88;;;13.47;100.00
7962;BME280;4026;43.652;24.906;2023-05-18T00:22:36;98727.84;;;13.51;100.00
7962;BME280;4026;43.652;24.906;2023-05-18T00:25:04;98735.81;;;13.48;100.00
7962;BME280;4026;43.652;24.906;2023-05-18T00:27:30;98740.16;;;13.38;100.00
7962;BME280;4026;43.652;24.906;2023-05-18T00:29:57;98729.91;;;13.28;100.00
7962;BME280;4026;43.652;24.906;2023-05-18T00:32:24;98738.53;;;13.36;100.00
7962;BME280;4026;43.652;24.906;2023-05-18T00:34:51;98740.84;;;13.30;100.00
7962;BME280;4026;43.652;24.906;2023-05-18T00:37:18;98743.41;;;13.40;100.00
7962;BME280;4026;43.652;24.906;2023-05-18T00:39:46;98746.66;;;13.42;100.00
7962;BME280;4026;43.652;24.906;2023-05-18T00:42:13;98745.81;;;13.31;100.00
7962;BME280;4026;43.652;24.906;2023-05-18T00:44:39;98742.84;;;13.26;100.00
7962;BME280;4026;43.652;24.906;2023-05-18T00:47:06;98742.59;;;13.29;100.00
7962;BME280;4026;43.652;24.906;2023-05-18T00:49:33;98755.56;;;13.38;100.00
7962;BME280;4026;43.652;24.906;2023-05-18T00:52:01;98750.97;;;13.31;100.00
7962;BME280;4026;43.652;24.906;2023-05-18T00:54:29;98750.97;;;13.31;100.00
7962;BME280;4026;43.652;24.906;2023-05-18T00:56:59;98760.69;;;13.38;100.00
7962;BME280;4026;43.652;24.906;2023-05-18T00:59:27;98764.47;;;13.43;100.00
7962;BME280;4026;43.652;24.906;2023-05-18T01:01:54;98766.09;;;13.44;100.00
7962;BME280;4026;43.652;24.906;2023-05-18T01:04:21;98765.03;;;13.47;100.00
7962;BME280;4026;43.652;24.906;2023-05-18T01:06:49;98763.66;;;13.43;100.00
7962;BME280;4026;43.652;24.906;2023-05-18T01:09:21;98768.53;;;13.46;100.00
7962;BME280;4026;43.652;24.906;2023-05-18T01:11:56;98765.56;;;13.50;100.00
7962;BME280;4026;43.652;24.906;2023-05-18T01:14:30;98762.19;;;13.50;100.00
7962;BME280;4026;43.652;24.906;2023-05-18T01:17:05;98766.38;;;13.41;100.00
7962;BME280;4026;43.652;24.906;2023-05-18T01:22:48;98763.13;;;13.39;100.00
7962;BME280;4026;43.652;24.906;2023-05-18T01:25:23;98770.69;;;13.41;100.00
7962;BME280;4026;43.652;24.906;2023-05-18T01:27:56;98774.22;;;13.40;100.00
7962;BME280;4026;43.652;24.906;2023-05-18T01:30:30;98778.78;;;13.46;100.00
7962;BME280;4026;43.652;24.906;2023-05-18T01:32:58;98776.38;;;13.34;100.00
7962;BME280;4026;43.652;24.906;2023-05-18T01:35:26;98774.75;;;13.33;100.00
7962;BME280;4026;43.652;24.906;2023-05-18T01:37:53;98776.38;;;13.34;100.00
7962;BME280;4026;43.652;24.906;2023-05-18T01:40:20;98766.09;;;13.34;100.00
7962;BME280;4026;43.652;24.906;2023-05-18T01:42:50;98774.22;;;13.40;100.00
7962;BME280;4026;43.652;24.906;2023-05-18T01:45:26;98771.53;;;13.41;100.00
7962;BME280;4026;43.652;24.906;2023-05-18T01:47:57;98769.91;;;13.30;100.00
7962;BME280;4026;43.652;24.906;2023-05-18T01:50:30;98770.16;;;13.27;100.00
7962;BME280;4026;43.652;24.906;2023-05-18T01:53:05;98768.00;;;13.32;100.00
7962;BME280;4026;43.652;24.906;2023-05-18T01:55:35;98767.16;;;13.22;100.00
7962;BME280;4026;43.652;24.906;2023-05-18T01:58:03;98759.31;;;13.14;100.00
7962;BME280;4026;43.652;24.906;2023-05-18T02:00:33;98766.66;;;13.28;100.00
7962;BME280;4026;43.652;24.906;2023-05-18T02:03:01;98765.41;;;13.13;100.00
7962;BME280;4026;43.652;24.906;2023-05-18T02:05:27;98765.28;;;13.24;100.00
7962;BME280;4026;43.652;24.906;2023-05-18T02:07:54;98770.53;;;13.23;100.00
7962;BME280;4026;43.652;24.906;2023-05-18T02:10:21;98770.81;;;13.10;100.00
7962;BME280;4026;43.652;24.906;2023-05-18T02:12:48;98773.66;;;13.07;100.00
7962;BME280;4026;43.652;24.906;2023-05-18T02:15:17;98781.06;;;13.10;100.00
7962;BME280;4026;43.652;24.906;2023-05-18T02:17:45;98783.78;;;13.18;100.00
7962;BME280;4026;43.652;24.906;2023-05-18T02:20:12;98787.16;;;13.09;100.00
7962;BME280;4026;43.652;24.906;2023-05-18T02:22:43;98783.91;;;13.07;100.00
7962;BME280;4026;43.652;24.906;2023-05-18T02:25:10;98784.72;;;13.17;100.00
7962;BME280;4026;43.652;24.906;2023-05-18T02:27:37;98784.44;;;13.20;100.00
7962;BME280;4026;43.652;24.906;2023-05-18T02:30:05;98777.16;;;13.16;100.00
7962;BME280;4026;43.652;24.906;2023-05-18T02:32:33;98786.22;;;13.10;100.00
7962;BME280;4026;43.652;24.906;2023-05-18T02:35:04;98781.75;;;13.12;100.00
7962;BME280;4026;43.652;24.906;2023-05-18T02:37:31;98788.25;;;13.16;100.00
7962;BME280;4026;43.652;24.906;2023-05-18T02:40:05;98785.53;;;13.08;100.00
7962;BME280;4026;43.652;24.906;2023-05-18T02:42:33;98787.41;;;13.06;100.00
7962;BME280;4026;43.652;24.906;2023-05-18T02:45:00;98793.63;;;13.13;100.00
7962;BME280;4026;43.652;24.906;2023-05-18T02:47:26;98792.31;;;13.09;100.00
7962;BME280;4026;43.652;24.906;2023-05-18T02:49:53;98795.00;;;13.07;100.00
7962;BME280;4026;43.652;24.906;2023-05-18T02:52:21;98794.72;;;13.01;100.00
7962;BME280;4026;43.652;24.906;2023-05-18T02:54:48;98799.31;;;13.07;100.00
7962;BME280;4026;43.652;24.906;2023-05-18T02:57:15;98796.06;;;12.95;100.00
7962;BME280;4026;43.652;24.906;2023-05-18T02:59:42;98809.00;;;12.94;100.00
7962;BME280;4026;43.652;24.906;2023-05-18T03:02:09;98813.88;;;12.97;100.00
7962;BME280;4026;43.652;24.906;2023-05-18T03:04:38;98807.81;;;12.98;100.00
7962;BME280;4026;43.652;24.906;2023-05-18T03:07:06;98814.66;;;12.87;100.00
7962;BME280;4026;43.652;24.906;2023-05-18T03:09:34;98811.31;;;12.97;100.00
7962;BME280;4026;43.652;24.906;2023-05-18T03:12:01;98813.06;;;13.06;100.00
7962;BME280;4026;43.652;24.906;2023-05-18T03:14:27;98819.00;;;12.97;100.00
7962;BME280;4026;43.652;24.906;2023-05-18T03:16:54;98829.84;;;13.10;100.00
7962;BME280;4026;43.652;24.906;2023-05-18T03:19:22;98827.97;;;13.12;100.00
7962;BME280;4026;43.652;24.906;2023-05-18T03:21:48;98826.47;;;13.09;100.00
7962;BME280;4026;43.652;24.906;2023-05-18T03:24:15;98834.16;;;13.19;100.00
7962;BME280;4026;43.652;24.906;2023-05-18T03:26:43;98839.84;;;13.13;100.00
7962;BME280;4026;43.652;24.906;2023-05-18T03:29:10;98843.38;;;13.12;100.00
7962;BME280;4026;43.652;24.906;2023-05-18T03:31:37;98848.78;;;13.09;100.00
7962;BME280;4026;43.652;24.906;2023-05-18T03:34:05;98845.94;;;13.12;100.00
7962;BME280;4026;43.652;24.906;2023-05-18T03:36:31;98848.13;;;13.26;100.00
7962;BME280;4026;43.652;24.906;2023-05-18T03:38:59;98855.94;;;13.15;100.00
7962;BME280;4026;43.652;24.906;2023-05-18T03:41:26;98857.47;;;13.27;100.00
7962;BME280;4026;43.652;24.906;2023-05-18T03:43:55;98863.38;;;13.18;100.00
7962;BME280;4026;43.652;24.906;2023-05-18T03:46:22;98860.81;;;13.18;100.00
7962;BME280;4026;43.652;24.906;2023-05-18T03:48:49;98861.72;;;13.17;100.00
7962;BME280;4026;43.652;24.906;2023-05-18T03:51:18;98867.84;;;13.26;100.00
7962;BME280;4026;43.652;24.906;2023-05-18T03:53:45;98867.72;;;13.27;100.00
7962;BME280;4026;43.652;24.906;2023-05-18T03:56:12;98862.31;;;13.30;100.00
7962;BME280;4026;43.652;24.906;2023-05-18T03:58:39;98871.09;;;13.28;100.00
7962;BME280;4026;43.652;24.906;2023-05-18T04:01:08;98867.72;;;13.37;100.00
7962;BME280;4026;43.652;24.906;2023-05-18T04:03:34;98870.41;;;13.26;100.00
7962;BME280;4026;43.652;24.906;2023-05-18T04:06:01;98867.97;;;13.24;100.00
7962;BME280;4026;43.652;24.906;2023-05-18T04:08:28;98874.97;;;13.22;100.00
7962;BME280;4026;43.652;24.906;2023-05-18T04:10:58;98878.22;;;13.24;100.00
7962;BME280;4026;43.652;24.906;2023-05-18T04:13:25;98877.44;;;13.24;100.00
7962;BME280;4026;43.652;24.906;2023-05-18T04:15:52;98874.56;;;13.17;100.00
7962;BME280;4026;43.652;24.906;2023-05-18T04:18:20;98872.00;;;13.17;100.00
7962;BME280;4026;43.652;24.906;2023-05-18T04:20:47;98886.31;;;13.10;100.00
7962;BME280;4026;43.652;24.906;2023-05-18T04:23:14;98888.19;;;13.08;100.00
7962;BME280;4026;43.652;24.906;2023-05-18T04:25:41;98891.19;;;13.13;100.00
7962;BME280;4026;43.652;24.906;2023-05-18T04:28:08;98902.78;;;13.17;100.00
7962;BME280;4026;43.652;24.906;2023-05-18T04:30:35;98893.22;;;13.19;100.00
7962;BME280;4026;43.652;24.906;2023-05-18T04:33:03;98902.53;;;13.20;100.00
7962;BME280;4026;43.652;24.906;2023-05-18T04:35:32;98911.19;;;13.19;100.00
7962;BME280;4026;43.652;24.906;2023-05-18T04:37:59;98912.50;;;13.04;100.00
7962;BME280;4026;43.652;24.906;2023-05-18T04:40:26;98903.06;;;13.14;100.00
7962;BME280;4026;43.652;24.906;2023-05-18T04:42:53;98917.09;;;13.00;100.00
7962;BME280;4026;43.652;24.906;2023-05-18T04:45:20;98915.78;;;13.16;100.00
7962;BME280;4026;43.652;24.906;2023-05-18T04:47:48;98919.69;;;13.20;100.00
7962;BME280;4026;43.652;24.906;2023-05-18T04:50:19;98930.78;;;13.20;100.00
7962;BME280;4026;43.652;24.906;2023-05-18T04:52:50;98926.47;;;13.21;100.00
7962;BME280;4026;43.652;24.906;2023-05-18T04:55:17;98932.16;;;13.24;100.00
7962;BME280;4026;43.652;24.906;2023-05-18T04:57:50;98933.06;;;13.23;100.00
7962;BME280;4026;43.652;24.906;2023-05-18T05:00:19;98937.22;;;13.35;100.00
7962;BME280;4026;43.652;24.906;2023-05-18T05:02:46;98933.69;;;13.36;100.00
7962;BME280;4026;43.652;24.906;2023-05-18T05:05:12;98936.16;;;13.48;100.00
7962;BME280;4026;43.652;24.906;2023-05-18T05:07:39;98940.84;;;13.43;100.00
7962;BME280;4026;43.652;24.906;2023-05-18T05:10:08;98940.47;;;13.47;100.00
7962;BME280;4026;43.652;24.906;2023-05-18T05:12:35;98943.16;;;13.46;100.00
7962;BME280;4026;43.652;24.906;2023-05-18T05:15:03;98951.56;;;13.57;100.00
7962;BME280;4026;43.652;24.906;2023-05-18T05:17:29;98947.50;;;13.55;100.00
7962;BME280;4026;43.652;24.906;2023-05-18T05:19:56;98960.50;;;13.53;100.00
7962;BME280;4026;43.652;24.906;2023-05-18T05:22:23;98958.88;;;13.62;100.00
7962;BME280;4026;43.652;24.906;2023-05-18T05:24:50;98965.94;;;13.79;100.00
7962;BME280;4026;43.652;24.906;2023-05-18T05:27:18;98965.94;;;13.89;100.00
7962;BME280;4026;43.652;24.906;2023-05-18T05:29:45;98967.03;;;13.96;100.00
7962;BME280;4026;43.652;24.906;2023-05-18T05:32:12;98983.78;;;14.10;100.00
7962;BME280;4026;43.652;24.906;2023-05-18T05:34:39;98974.31;;;14.20;100.00
7962;BME280;4026;43.652;24.906;2023-05-18T05:37:09;98981.63;;;14.35;100.00
7962;BME280;4026;43.652;24.906;2023-05-18T05:39:36;98990.53;;;14.40;100.00
7962;BME280;4026;43.652;24.906;2023-05-18T05:42:03;98998.00;;;14.53;100.00
7962;BME280;4026;43.652;24.906;2023-05-18T05:44:31;98994.84;;;14.59;100.00
7962;BME280;4026;43.652;24.906;2023-05-18T05:46:58;99006.66;;;14.52;100.00
7962;BME280;4026;43.652;24.906;2023-05-18T05:49:25;99017.34;;;14.67;100.00
7962;BME280;4026;43.652;24.906;2023-05-18T05:51:52;99020.84;;;14.66;100.00
7962;BME280;4026;43.652;24.906;2023-05-18T05:54:19;99009.19;;;14.71;100.00
7962;BME280;4026;43.652;24.906;2023-05-18T05:56:46;99023.41;;;14.76;100.00
7962;BME280;4026;43.652;24.906;2023-05-18T05:59:12;99031.09;;;14.85;100.00
7962;BME280;4026;43.652;24.906;2023-05-18T06:01:41;99029.69;;;15.01;100.00
7962;BME280;4026;43.652;24.906;2023-05-18T06:04:08;99035.69;;;14.91;100.00
7962;BME280;4026;43.652;24.906;2023-05-18T06:06:36;99046.13;;;14.80;100.00
7962;BME280;4026;43.652;24.906;2023-05-18T06:09:03;99040.59;;;14.85;100.00
7962;BME280;4026;43.652;24.906;2023-05-18T06:11:30;99049.75;;;14.97;100.00
7962;BME280;4026;43.652;24.906;2023-05-18T06:13:57;99051.66;;;15.05;100.00
7962;BME280;4026;43.652;24.906;2023-05-18T06:16:24;99046.47;;;15.14;100.00
7962;BME280;4026;43.652;24.906;2023-05-18T06:18:52;99046.19;;;15.17;100.00
7962;BME280;4026;43.652;24.906;2023-05-18T06:21:19;99049.28;;;15.21;100.00
7962;BME280;4026;43.652;24.906;2023-05-18T06:23:46;99035.34;;;15.14;100.00
7962;BME280;4026;43.652;24.906;2023-05-18T06:26:13;99044.53;;;15.26;100.00
7962;BME280;4026;43.652;24.906;2023-05-18T06:28:40;99047.72;;;15.38;100.00
7962;BME280;4026;43.652;24.906;2023-05-18T06:31:06;99047.63;;;15.30;100.00
7962;BME280;4026;43.652;24.906;2023-05-18T06:33:33;99051.56;;;15.34;100.00
7962;BME280;4026;43.652;24.906;2023-05-18T06:36:02;99051.72;;;15.23;100.00
7962;BME280;4026;43.652;24.906;2023-05-18T06:38:29;99056.75;;;15.14;100.00
7962;BME280;4026;43.652;24.906;2023-05-18T06:40:56;99052.75;;;15.02;100.00
7962;BME280;4026;43.652;24.906;2023-05-18T06:43:22;99053.25;;;15.15;100.00
7962;BME280;4026;43.652;24.906;2023-05-18T06:45:51;99057.44;;;15.16;100.00
7962;BME280;4026;43.652;24.906;2023-05-18T06:48:18;99063.81;;;15.12;100.00
7962;BME280;4026;43.652;24.906;2023-05-18T06:50:44;99061.63;;;15.27;100.00
7962;BME280;4026;43.652;24.906;2023-05-18T06:53:13;99056.47;;;15.27;100.00
7962;BME280;4026;43.652;24.906;2023-05-18T06:55:39;99064.94;;;15.37;100.00
7962;BME280;4026;43.652;24.906;2023-05-18T06:58:06;99067.19;;;15.50;100.00
7962;BME280;4026;43.652;24.906;2023-05-18T07:00:33;99073.09;;;15.70;100.00
7962;BME280;4026;43.652;24.906;2023-05-18T07:03:00;99078.06;;;15.44;100.00
7962;BME280;4026;43.652;24.906;2023-05-18T07:05:27;99085.91;;;15.52;100.00
7962;BME280;4026;43.652;24.906;2023-05-18T07:07:54;99076.56;;;15.79;100.00
7962;BME280;4026;43.652;24.906;2023-05-18T07:10:23;99086.75;;;15.80;100.00
7962;BME280;4026;43.652;24.906;2023-05-18T07:12:49;99093.72;;;15.70;100.00
7962;BME280;4026;43.652;24.906;2023-05-18T07:15:16;99093.16;;;15.67;100.00
7962;BME280;4026;43.652;24.906;2023-05-18T07:17:43;99102.06;;;15.82;100.00
7962;BME280;4026;43.652;24.906;2023-05-18T07:20:10;99104.19;;;15.69;100.00
7962;BME280;4026;43.652;24.906;2023-05-18T07:22:38;99108.47;;;15.40;100.00
7962;BME280;4026;43.652;24.906;2023-05-18T07:25:05;99109.00;;;15.44;100.00
7962;BME280;4026;43.652;24.906;2023-05-18T07:27:33;99105.94;;;15.58;100.00
7962;BME280;4026;43.652;24.906;2023-05-18T07:30:00;99104.19;;;15.69;100.00
7962;BME280;4026;43.652;24.906;2023-05-18T07:32:26;99112.25;;;15.46;100.00
7962;BME280;4026;43.652;24.906;2023-05-18T07:34:53;99109.72;;;15.64;100.00
7962;BME280;4026;43.652;24.906;2023-05-18T07:37:20;99115.63;;;15.84;100.00
7962;BME280;4026;43.652;24.906;2023-05-18T07:39:47;99122.69;;;15.82;100.00
7962;BME280;4026;43.652;24.906;2023-05-18T07:42:14;99126.22;;;15.81;100.00
7962;BME280;4026;43.652;24.906;2023-05-18T07:44:42;99132.53;;;15.96;100.00
7962;BME280;4026;43.652;24.906;2023-05-18T07:47:09;99141.94;;;15.88;100.00
7962;BME280;4026;43.652;24.906;2023-05-18T07:49:36;99143.22;;;16.01;100.00
7962;BME280;4026;43.652;24.906;2023-05-18T07:52:05;99135.88;;;16.06;100.00
7962;BME280;4026;43.652;24.906;2023-05-18T07:54:32;99146.09;;;15.98;100.00
7962;BME280;4026;43.652;24.906;2023-05-18T07:56:59;99154.34;;;16.02;100.00
7962;BME280;4026;43.652;24.906;2023-05-18T07:59:26;99160.28;;;16.12;100.00
7962;BME280;4026;43.652;24.906;2023-05-18T08:01:54;99167.84;;;16.14;100.00
7962;BME280;4026;43.652;24.906;2023-05-18T08:04:23;99171.50;;;15.93;100.00
7962;BME280;4026;43.652;24.906;2023-05-18T08:06:50;99165.19;;;16.05;100.00
7962;BME280;4026;43.652;24.906;2023-05-18T08:09:19;99175.59;;;16.14;100.00
7962;BME280;4026;43.652;24.906;2023-05-18T08:11:46;99179.03;;;16.04;100.00
7962;BME280;4026;43.652;24.906;2023-05-18T08:14:15;99178.28;;;15.94;100.00
7962;BME280;4026;43.652;24.906;2023-05-18T08:16:42;99177.72;;;16.00;100.00
7962;BME280;4026;43.652;24.906;2023-05-18T08:19:10;99172.66;;;16.09;100.00
7962;BME280;4026;43.652;24.906;2023-05-18T08:21:37;99169.78;;;16.12;100.00
7962;BME280;4026;43.652;24.906;2023-05-18T08:24:04;99171.91;;;16.16;100.00
7962;BME280;4026;43.652;24.906;2023-05-18T08:26:31;99178.19;;;16.14;100.00
7962;BME280;4026;43.652;24.906;2023-05-18T08:28:58;99181.25;;;16.27;100.00
7962;BME280;4026;43.652;24.906;2023-05-18T08:31:25;99179.69;;;16.34;100.00
7962;BME280;4026;43.652;24.906;2023-05-18T08:33:52;99192.88;;;16.31;100.00
7962;BME280;4026;43.652;24.906;2023-05-18T08:36:20;99204.75;;;16.24;100.00
7962;BME280;4026;43.652;24.906;2023-05-18T08:38:47;99197.44;;;16.19;100.00
7962;BME280;4026;43.652;24.906;2023-05-18T08:41:18;99204.88;;;16.22;100.00
7962;BME280;4026;43.652;24.906;2023-05-18T08:43:50;99207.13;;;16.35;100.00
7962;BME280;4026;43.652;24.906;2023-05-18T08:46:20;99208.75;;;16.36;100.00
7962;BME280;4026;43.652;24.906;2023-05-18T08:48:50;99208.06;;;16.62;100.00
7962;BME280;4026;43.652;24.906;2023-05-18T08:51:20;99219.41;;;16.69;100.00
7962;BME280;4026;43.652;24.906;2023-05-18T08:53:51;99221.22;;;16.86;100.00
7962;BME280;4026;43.652;24.906;2023-05-18T08:56:21;99217.50;;;17.07;100.00
7962;BME280;4026;43.652;24.906;2023-05-18T08:58:50;99221.94;;;17.14;100.00
7962;BME280;4026;43.652;24.906;2023-05-18T09:01:17;99215.09;;;16.87;100.00
7962;BME280;4026;43.652;24.906;2023-05-18T09:03:45;99207.69;;;16.74;100.00
7962;BME280;4026;43.652;24.906;2023-05-18T09:06:14;99201.72;;;16.74;100.00
7962;BME280;4026;43.652;24.906;2023-05-18T09:08:45;99213.91;;;17.00;100.00
7962;BME280;4026;43.652;24.906;2023-05-18T09:11:12;99210.75;;;16.88;100.00
7962;BME280;4026;43.652;24.906;2023-05-18T09:13:39;99207.66;;;16.39;100.00
7962;BME280;4026;43.652;24.906;2023-05-18T09:16:06;99212.09;;;16.19;100.00
7962;BME280;4026;43.652;24.906;2023-05-18T09:18:33;99217.50;;;16.71;100.00
7962;BME280;4026;43.652;24.906;2023-05-18T09:21:00;99227.31;;;16.67;100.00
7962;BME280;4026;43.652;24.906;2023-05-18T09:23:27;99220.41;;;16.86;100.00
7962;BME280;4026;43.652;24.906;2023-05-18T09:25:55;99220.59;;;17.28;100.00
7962;BME280;4026;43.652;24.906;2023-05-18T09:28:25;99214.66;;;17.36;100.00
7962;BME280;4026;43.652;24.906;2023-05-18T09:30:52;99202.84;;;17.59;100.00
7962;BME280;4026;43.652;24.906;2023-05-18T09:33:19;99196.63;;;17.70;100.00
7962;BME280;4026;43.652;24.906;2023-05-18T09:35:49;99185.59;;;17.34;100.00
7962;BME280;4026;43.652;24.906;2023-05-18T09:38:16;99192.63;;;17.50;100.00
7962;BME280;4026;43.652;24.906;2023-05-18T09:40:47;99199.31;;;17.34;100.00
7962;BME280;4026;43.652;24.906;2023-05-18T09:43:15;99210.94;;;17.12;100.00
7962;BME280;4026;43.652;24.906;2023-05-18T09:45:43;99217.72;;;16.95;100.00
7962;BME280;4026;43.652;24.906;2023-05-18T09:48:11;99221.00;;;16.97;100.00
7962;BME280;4026;43.652;24.906;2023-05-18T09:50:38;99217.75;;;17.13;100.00
7962;BME280;4026;43.652;24.906;2023-05-18T09:53:06;99215.53;;;17.45;100.00
7962;BME280;4026;43.652;24.906;2023-05-18T09:55:36;99221.06;;;17.50;100.00
7962;BME280;4026;43.652;24.906;2023-05-18T09:58:06;99233.19;;;17.49;100.00
7962;BME280;4026;43.652;24.906;2023-05-18T10:00:39;99231.25;;;17.77;100.00
7962;BME280;4026;43.652;24.906;2023-05-18T10:03:16;99244.75;;;17.89;100.00
7962;BME280;4026;43.652;24.906;2023-05-18T10:05:43;99254.94;;;17.91;100.00
7962;BME280;4026;43.652;24.906;2023-05-18T10:08:11;99255.59;;;17.93;100.00
7962;BME280;4026;43.652;24.906;2023-05-18T10:10:38;99254.41;;;18.13;100.00
7962;BME280;4026;43.652;24.906;2023-05-18T10:13:07;99242.25;;;18.05;100.00
7962;BME280;4026;43.652;24.906;2023-05-18T10:15:34;99243.75;;;18.16;100.00
7962;BME280;4026;43.652;24.906;2023-05-18T10:18:05;99251.31;;;18.09;100.00
7962;BME280;4026;43.652;24.906;2023-05-18T10:20:33;99253.81;;;18.27;100.00
7962;BME280;4026;43.652;24.906;2023-05-18T10:23:04;99245.09;;;18.28;100.00
7962;BME280;4026;43.652;24.906;2023-05-18T10:25:32;99238.94;;;18.21;100.00
7962;BME280;4026;43.652;24.906;2023-05-18T10:28:02;99248.28;;;18.22;100.00
7962;BME280;4026;43.652;24.906;2023-05-18T10:30:32;99238.94;;;18.21;100.00
7962;BME280;4026;43.652;24.906;2023-05-18T10:33:03;99231.00;;;18.23;100.00
7962;BME280;4026;43.652;24.906;2023-05-18T10:35:31;99235.09;;;18.42;100.00
7962;BME280;4026;43.652;24.906;2023-05-18T10:37:58;99224.75;;;18.42;100.00
7962;BME280;4026;43.652;24.906;2023-05-18T10:40:27;99225.34;;;18.27;100.00
7962;BME280;4026;43.652;24.906;2023-05-18T10:42:56;99218.25;;;18.38;100.00
7962;BME280;4026;43.652;24.906;2023-05-18T10:45:23;99227.31;;;18.33;100.00
7962;BME280;4026;43.652;24.906;2023-05-18T10:47:51;99242.53;;;18.37;100.00
7962;BME280;4026;43.652;24.906;2023-05-18T10:50:21;99232.78;;;18.22;100.00
7962;BME280;4026;43.652;24.906;2023-05-18T10:52:49;99232.22;;;18.53;100.00
7962;BME280;4026;43.652;24.906;2023-05-18T10:55:17;99236.25;;;18.55;100.00
7962;BME280;4026;43.652;24.906;2023-05-18T10:57:48;99242.81;;;18.76;100.00
7962;BME280;4026;43.652;24.906;2023-05-18T11:00:17;99240.41;;;18.83;100.00
7962;BME280;4026;43.652;24.906;2023-05-18T11:02:45;99239.91;;;18.87;100.00
7962;BME280;4026;43.652;24.906;2023-05-18T11:05:12;99245.91;;;18.80;100.00
7962;BME280;4026;43.652;24.906;2023-05-18T11:07:44;99243.97;;;18.90;99.83
7962;BME280;4026;43.652;24.906;2023-05-18T11:10:11;99244.59;;;18.84;99.16
7962;BME280;4026;43.652;24.906;2023-05-18T11:12:39;99248.75;;;18.68;99.90
7962;BME280;4026;43.652;24.906;2023-05-18T11:15:08;99245.56;;;18.74;100.00
7962;BME280;4026;43.652;24.906;2023-05-18T11:17:34;99253.03;;;18.86;100.00
7962;BME280;4026;43.652;24.906;2023-05-18T11:20:23;99247.78;;;18.69;98.93
7962;BME280;4026;43.652;24.906;2023-05-18T11:23:01;99247.13;;;18.67;100.00
7962;BME280;4026;43.652;24.906;2023-05-18T11:25:43;99250.78;;;18.91;93.13
7962;BME280;4026;43.652;24.906;2023-05-18T11:28:11;99243.97;;;18.90;92.72
7962;BME280;4026;43.652;24.906;2023-05-18T11:30:46;99255.63;;;18.86;89.86
7962;BME280;4026;43.652;24.906;2023-05-18T11:33:16;99252.34;;;18.75;92.58
7962;BME280;4026;43.652;24.906;2023-05-18T11:36:00;99257.22;;;18.87;90.38
7962;BME280;4026;43.652;24.906;2023-05-18T11:38:47;99261.09;;;18.74;88.52
7962;BME280;4026;43.652;24.906;2023-05-18T11:41:32;99243.41;;;18.70;91.44
7962;BME280;4026;43.652;24.906;2023-05-18T11:44:15;99244.03;;;18.64;90.21
7962;BME280;4026;43.652;24.906;2023-05-18T11:46:53;99232.25;;;18.69;92.30
7962;BME280;4026;43.652;24.906;2023-05-18T11:49:22;99217.72;;;18.76;94.91
7962;BME280;4026;43.652;24.906;2023-05-18T11:52:05;99216.13;;;18.92;95.05
7962;BME280;4026;43.652;24.906;2023-05-18T11:54:38;99240.72;;;18.96;94.81
7962;BME280;4026;43.652;24.906;2023-05-18T11:57:05;99238.13;;;18.96;93.02
7962;BME280;4026;43.652;24.906;2023-05-18T11:59:35;99243.00;;;18.99;90.93
7962;BME280;4026;43.652;24.906;2023-05-18T12:02:03;99244.97;;;18.97;88.97
7962;BME280;4026;43.652;24.906;2023-05-18T12:04:30;99238.94;;;18.96;88.33
7962;BME280;4026;43.652;24.906;2023-05-18T12:06:59;99240.41;;;18.91;88.76
7962;BME280;4026;43.652;24.906;2023-05-18T12:09:29;99231.50;;;18.93;90.66
7962;BME280;4026;43.652;24.906;2023-05-18T12:11:59;99233.78;;;19.13;90.35
7962;BME280;4026;43.652;24.906;2023-05-18T12:14:26;99230.84;;;19.24;94.45
7962;BME280;4026;43.652;24.906;2023-05-18T12:16:53;99236.53;;;19.36;95.25
7962;BME280;4026;43.652;24.906;2023-05-18T12:19:21;99228.41;;;19.39;87.88
7962;BME280;4026;43.652;24.906;2023-05-18T12:21:48;99231.66;;;19.25;88.62
7962;BME280;4026;43.652;24.906;2023-05-18T12:24:14;99229.41;;;19.13;89.14
7962;BME280;4026;43.652;24.906;2023-05-18T12:26:41;99229.25;;;19.23;91.53
7962;BME280;4026;43.652;24.906;2023-05-18T12:29:12;99233.44;;;19.32;89.90
7962;BME280;4026;43.652;24.906;2023-05-18T12:31:45;99231.00;;;19.47;90.11
7962;BME280;4026;43.652;24.906;2023-05-18T12:34:13;99222.88;;;19.50;89.52
7962;BME280;4026;43.652;24.906;2023-05-18T12:36:41;99220.28;;;19.50;92.56
7962;BME280;4026;43.652;24.906;2023-05-18T12:39:08;99213.50;;;19.49;93.83
7962;BME280;4026;43.652;24.906;2023-05-18T12:41:35;99215.75;;;19.52;91.83
7962;BME280;4026;43.652;24.906;2023-05-18T12:44:02;99213.16;;;19.52;90.67
7962;BME280;4026;43.652;24.906;2023-05-18T12:46:30;99213.84;;;19.21;91.95
7962;BME280;4026;43.652;24.906;2023-05-18T12:48:58;99214.81;;;19.20;93.90
7962;BME280;4026;43.652;24.906;2023-05-18T12:51:31;99217.06;;;19.40;93.81
7962;BME280;4026;43.652;24.906;2023-05-18T12:54:00;99220.63;;;19.39;88.05
7962;BME280;4026;43.652;24.906;2023-05-18T12:56:27;99218.22;;;19.13;87.22
7962;BME280;4026;43.652;24.906;2023-05-18T12:59:16;99213.19;;;19.19;91.27
7962;BME280;4026;43.652;24.906;2023-05-18T13:01:45;99213.84;;;19.30;92.38
7962;BME280;4026;43.652;24.906;2023-05-18T13:04:12;99213.50;;;19.41;91.02
7962;BME280;4026;43.652;24.906;2023-05-18T13:06:39;99219.63;;;19.56;90.40
7962;BME280;4026;43.652;24.906;2023-05-18T13:09:07;99209.94;;;19.50;89.67
7962;BME280;4026;43.652;24.906;2023-05-18T13:11:34;99204.75;;;19.66;92.75